< < Back
Terminal Aerodrome Forecast


Current Version              Previous Versions:   1  2  3  4  5  6  7  8  9  

Terminal Aerodrome Forecast

109
FTUS42 KFFC 021741
TAFCSG
TAF
KCSG 021741Z 0218/0318 26008KT P6SM SCT025 BKN035
      TEMPO 0218/0222 22010G20KT 4SM TSRA BR BKN025CB
     FM022300 22009KT 4SM -TSRA BR BKN025CB
     FM030300 23008KT P6SM VCSH BKN040
     FM030600 25004KT 5SM BR SCT009 BKN015
     FM031200 24005KT P6SM BKN007 PROB30 0316/0318 -SHRA SCT007
      BKN015=

Latest METAR

131
SAUS70 KWBC 022100 RRA
MTRCSG
METAR KCSG 022051Z 31008G18KT 10SM FEW034 SCT065 27/19 A2993 RMK AO2
SLP131 T02670189 58027


USA.gov is the U.S. government's official web portal to all federal, state and local government web resources and services.